createdAt,value
2017-04-06T14:25:52.653Z,420
2017-04-06T14:26:34.160Z,445
2017-04-06T14:27:14.518Z,465
2017-04-06T14:27:54.937Z,515
2017-04-06T14:28:35.716Z,535
2017-04-06T14:29:15.899Z,505
2017-04-06T14:29:56.283Z,490
2017-04-06T14:30:36.789Z,500
2017-04-06T14:31:17.232Z,510
2017-04-06T14:31:57.656Z,505
2017-04-06T14:32:38.040Z,495
2017-04-06T14:33:18.454Z,480
2017-04-06T14:33:58.839Z,465
2017-04-06T14:34:39.683Z,470
2017-04-06T14:35:20.075Z,470
2017-04-06T14:36:02.433Z,460
2017-04-06T14:36:46.207Z,475
2017-04-06T14:37:26.724Z,485
2017-04-06T14:38:07.174Z,495
2017-04-06T14:38:47.570Z,500
2017-04-06T14:39:28.017Z,505
2017-04-06T14:40:08.420Z,505
2017-04-06T14:40:49.402Z,490
2017-04-06T14:41:29.807Z,470
2017-04-06T14:42:10.261Z,450
2017-04-06T14:42:52.141Z,430
2017-04-06T14:43:32.580Z,425
2017-04-06T14:44:12.994Z,425
2017-04-06T14:44:53.568Z,415
2017-04-06T14:45:34.010Z,400
2017-04-06T14:46:14.518Z,385
2017-04-06T14:46:55.206Z,385
2017-04-06T14:47:35.872Z,390
2017-04-06T14:48:16.285Z,410
2017-04-06T14:48:56.873Z,430
2017-04-06T14:49:37.726Z,450
2017-04-06T14:50:18.063Z,460
2017-04-06T14:51:00.146Z,460
2017-04-06T14:51:40.501Z,455
2017-04-06T14:52:21.029Z,440
2017-04-06T14:53:01.834Z,415
2017-04-06T14:53:42.263Z,425
2017-04-06T14:54:22.681Z,435
2017-04-06T14:55:03.167Z,435
2017-04-06T14:55:43.523Z,455
2017-04-06T14:56:23.982Z,465
2017-04-06T14:57:04.453Z,465
2017-04-06T14:57:44.908Z,490
2017-04-06T14:58:25.228Z,485
2017-04-06T14:59:05.703Z,465
2017-04-06T14:59:46.121Z,470
2017-04-06T15:00:26.634Z,445
2017-04-06T15:01:07.225Z,430
2017-04-06T15:01:47.793Z,430
2017-04-06T15:04:34.534Z,355
2017-04-06T15:05:23.390Z,330
2017-04-06T15:06:11.892Z,340
2017-04-06T15:07:00.548Z,320
2017-04-06T15:07:49.127Z,320
2017-04-06T15:08:37.964Z,295
2017-04-06T15:09:25.426Z,285
2017-04-06T15:10:09.474Z,285
2017-04-06T15:10:50.033Z,290
2017-04-06T15:11:30.458Z,305
2017-04-06T15:12:10.771Z,305
2017-04-06T15:12:51.255Z,305
2017-04-06T15:13:31.605Z,310
2017-04-06T15:14:12.060Z,310
2017-04-06T15:14:52.455Z,310
2017-04-06T15:15:32.858Z,310
2017-04-06T15:16:13.373Z,310
2017-04-06T15:16:53.778Z,310
2017-04-06T15:17:35.121Z,315
2017-04-06T15:18:15.528Z,320
2017-04-06T15:18:56.022Z,310
2017-04-06T15:19:36.375Z,295
2017-04-06T15:20:16.768Z,285
2017-04-06T15:20:57.214Z,260
2017-04-06T15:21:37.650Z,255
2017-04-06T15:22:18.054Z,250
2017-04-06T15:22:58.495Z,245
2017-04-06T15:23:38.860Z,260
2017-04-06T15:24:19.292Z,255
2017-04-06T15:24:59.745Z,245
2017-04-06T15:25:40.115Z,255
2017-04-06T15:26:20.542Z,255
2017-04-06T15:27:00.920Z,260
2017-04-06T15:27:41.339Z,265
2017-04-06T15:28:21.742Z,270
2017-04-06T15:29:02.141Z,270
2017-04-06T15:29:42.595Z,275
2017-04-06T15:30:23.164Z,275
2017-04-06T15:31:03.596Z,290
2017-04-06T15:31:44.042Z,300
2017-04-06T15:32:24.585Z,290
2017-04-06T15:33:04.924Z,285
2017-04-06T15:33:45.342Z,280
2017-04-06T15:34:25.809Z,275
2017-04-06T15:35:06.175Z,275
2017-04-06T15:35:46.558Z,275
2017-04-06T15:36:26.951Z,270
2017-04-06T15:37:07.401Z,270
2017-04-06T15:37:47.765Z,270
2017-04-06T15:40:14.561Z,270
2017-04-06T15:41:03.591Z,265
2017-04-06T15:41:51.831Z,260
2017-04-06T15:42:40.731Z,255
2017-04-06T15:43:29.327Z,255
2017-04-06T15:44:17.669Z,255
2017-04-06T15:45:06.349Z,255
2017-04-06T15:45:55.449Z,250
2017-04-06T15:46:44.238Z,255
2017-04-06T15:47:33.283Z,255
2017-04-06T15:48:21.884Z,255
2017-04-06T15:49:10.773Z,250
2017-04-06T15:49:59.271Z,245
2017-04-06T15:50:48.786Z,240
2017-04-06T15:51:37.177Z,245
2017-04-06T15:52:28.240Z,235
2017-04-06T15:53:16.647Z,235
2017-04-06T15:54:04.934Z,230
2017-04-06T15:54:53.688Z,225
2017-04-06T15:55:42.249Z,220
2017-04-06T15:56:31.632Z,220
2017-04-06T15:57:21.146Z,220
2017-04-06T15:58:09.685Z,210
2017-04-06T15:58:58.252Z,210
2017-04-06T15:59:47.064Z,215
2017-04-06T16:00:35.767Z,210
2017-04-06T16:01:24.001Z,205
2017-04-06T16:02:16.146Z,200
2017-04-06T19:17:18.916Z,0
2017-04-06T19:18:01.762Z,0
2017-04-06T19:18:45.394Z,0
2017-04-06T19:19:30.106Z,0
2017-04-06T19:20:16.850Z,0
2017-04-06T19:21:01.813Z,0
2017-04-06T19:21:45.633Z,0
2017-04-06T19:22:30.122Z,0
2017-04-06T19:23:11.684Z,0
2017-04-06T19:23:54.715Z,0
2017-04-06T19:24:35.304Z,0
2017-04-06T19:25:20.256Z,0
2017-04-06T19:26:03.202Z,0
2017-04-06T19:26:46.559Z,0
2017-04-06T19:27:30.084Z,0
2017-04-06T19:28:13.897Z,0
2017-04-06T19:28:58.584Z,0
2017-04-06T19:29:45.982Z,0
2017-04-06T19:30:31.336Z,0
2017-04-06T19:31:26.926Z,0
2017-04-06T19:32:18.848Z,0
2017-04-06T19:33:11.575Z,0
2017-04-06T19:34:07.302Z,0
2017-04-06T19:36:44.482Z,0
2017-04-06T19:37:35.796Z,0
2017-04-06T19:38:23.030Z,0
2017-04-06T19:39:05.799Z,0
2017-04-06T19:39:47.338Z,0
2017-04-06T19:40:28.203Z,0
2017-04-06T19:41:11.939Z,0
2017-04-06T19:45:06.104Z,0
2017-04-06T19:51:23.527Z,0
2017-04-06T19:52:15.256Z,0
2017-04-06T19:53:08.889Z,0
2017-04-06T19:54:07.864Z,0
2017-04-06T19:55:02.542Z,0
2017-04-06T19:56:00.206Z,0
2017-04-06T19:58:33.762Z,0
2017-04-06T19:59:15.617Z,0
2017-04-06T20:00:00.800Z,0
2017-04-06T20:00:43.723Z,0
2017-04-06T20:01:28.461Z,0
2017-04-06T20:02:15.191Z,0
2017-04-06T20:02:59.902Z,0
2017-04-06T20:03:46.056Z,0
2017-04-06T20:04:29.886Z,0
2017-04-06T20:05:13.249Z,0
2017-04-06T20:05:55.945Z,0
2017-04-06T20:06:39.160Z,0
2017-04-06T20:07:30.436Z,0
2017-04-06T20:08:24.061Z,0
2017-04-06T20:09:10.251Z,0
2017-04-06T20:09:58.920Z,0
2017-04-06T20:10:41.185Z,0
2017-04-06T20:11:26.993Z,0
2017-04-06T20:13:43.915Z,0
2017-04-06T20:14:24.554Z,0
2017-04-06T20:15:05.515Z,0
2017-04-06T20:15:46.144Z,0
2017-04-06T20:16:29.260Z,0
2017-04-06T20:17:14.728Z,0
2017-04-06T20:17:56.828Z,0
2017-04-06T20:18:41.382Z,0
2017-04-06T20:19:26.285Z,0
2017-04-06T20:20:12.547Z,0
2017-04-06T20:21:01.272Z,0
2017-04-06T20:21:44.871Z,0
2017-04-06T20:22:33.689Z,0
2017-04-06T20:25:14.064Z,0
2017-04-06T20:27:49.349Z,0
2017-04-06T20:28:39.701Z,0
2017-04-06T20:29:29.123Z,0
2017-04-06T20:30:20.688Z,0
2017-04-06T20:32:53.059Z,0
2017-04-06T20:37:01.300Z,0
2017-04-06T20:37:50.401Z,0
2017-04-06T20:38:38.957Z,0
2017-04-06T20:39:28.645Z,0
2017-04-06T20:40:17.405Z,0
2017-04-06T20:41:06.759Z,0
2017-04-06T20:41:55.321Z,0
2017-04-06T20:44:51.821Z,0
2017-04-06T20:45:48.627Z,0
2017-04-06T20:46:47.013Z,0
2017-04-06T20:49:32.386Z,0
2017-04-06T20:50:20.918Z,0
2017-04-06T20:51:09.772Z,0
2017-04-06T20:51:58.528Z,0
2017-04-06T20:52:47.123Z,0
2017-04-06T20:53:36.210Z,0
2017-04-06T20:54:24.918Z,0
2017-04-06T20:55:14.103Z,0
2017-04-06T20:56:02.283Z,0
2017-04-06T20:56:51.460Z,0
2017-04-06T20:57:39.924Z,0
2017-04-06T20:58:28.755Z,0
2017-04-06T20:59:17.760Z,0
2017-04-06T21:00:07.931Z,0
2017-04-06T21:00:57.781Z,0
